»·PEaware :: UAL2488 KLAX-KSNA

UAL2488 :: KLAX-KSNA

FLIGHT INFORMATION

Flight Status: Arrived
Operator:
United Airlines
More flights by this operator :: More flights under this callsign
Pilot: Brennen D. (26863)
Aircraft: BOEING 737-800
(B738)
More flights by this aircraft type
Origin: KLAX Los Angeles Intl
United States
Destination: KSNA John Wayne-Orange Co
United States
More flights between these airports :: More routes between these airports
Route: LAXX1 SLI
File this flight plan on PilotEdge
Remarks: I-6 Rating
Altitude:
(Current/Filed)
5,000ft
Speed:
(Current/Filed)
200kts
Departed: 08-Dec-19 04:47 PM
Arrived: 08-Dec-19 05:21 PM
Distance/Time
Traveled:
31nm/0:34
Distance/Time
To Go:
Arrived

Flight Plot

Page will automatically refresh every two minutes.

Flight plan parsing failed; only flown route is shown


Map Options




Map Legend


Flown Route
Filed Route
Departure Airport
Arrival Airport
Navaid (VOR, NDB)
Fix

Horizontal Profiles

Position Reports

Time Latitude Longitude Heading Altitude Ground
Speed
08-Dec-19 16:21 33.940740 -118.406112 251 122ft 0kts
08-Dec-19 16:22 33.940740 -118.406112 251 122ft 0kts
08-Dec-19 16:23 33.940740 -118.406112 251 122ft 0kts
08-Dec-19 16:24 33.940740 -118.406112 251 122ft 0kts
08-Dec-19 16:25 33.940740 -118.406112 251 122ft 0kts
08-Dec-19 16:26 33.940740 -118.406112 251 122ft 0kts
08-Dec-19 16:27 33.940740 -118.406112 251 122ft 0kts
08-Dec-19 16:28 33.940740 -118.406112 251 122ft 0kts
08-Dec-19 16:29 33.940740 -118.406112 251 122ft 0kts
08-Dec-19 16:30 33.940740 -118.406112 251 122ft 0kts
08-Dec-19 16:31 33.940740 -118.406112 251 122ft 0kts
08-Dec-19 16:32 33.940740 -118.406112 251 123ft 0kts
08-Dec-19 16:33 33.940740 -118.406112 251 123ft 0kts
08-Dec-19 16:34 33.940791 -118.405924 245 122ft 2kts
08-Dec-19 16:35 33.941201 -118.405687 172 121ft 1kts
08-Dec-19 16:36 33.941215 -118.405689 172 121ft 0kts
08-Dec-19 16:37 33.941215 -118.405689 172 121ft 0kts
08-Dec-19 16:38 33.941215 -118.405689 172 121ft 0kts
08-Dec-19 16:39 33.941127 -118.405675 172 122ft 2kts
08-Dec-19 16:40 33.939393 -118.405416 172 122ft 6kts
08-Dec-19 16:41 33.938381 -118.403579 82 120ft 16kts
08-Dec-19 16:42 33.939073 -118.397060 82 111ft 23kts
08-Dec-19 16:43 33.939939 -118.388614 83 103ft 27kts
08-Dec-19 16:44 33.940750 -118.380451 99 99ft 0kts
08-Dec-19 16:45 33.940374 -118.380040 169 99ft 9kts
08-Dec-19 16:46 33.936186 -118.410531 254 780ft 182kts
08-Dec-19 16:47 33.907528 -118.461292 233 2564ft 195kts
08-Dec-19 16:48 33.872891 -118.512855 233 4354ft 202kts
08-Dec-19 16:49 33.830176 -118.556081 186 4993ft 216kts
08-Dec-19 16:50 33.769991 -118.543305 172 4998ft 219kts
08-Dec-19 16:51 33.710484 -118.527210 163 4999ft 221kts
08-Dec-19 16:52 33.667691 -118.477914 122 4997ft 206kts
08-Dec-19 16:53 33.638917 -118.417639 122 4998ft 207kts
08-Dec-19 16:54 33.610209 -118.357421 121 4998ft 207kts
08-Dec-19 16:55 33.581628 -118.297328 121 5001ft 207kts
08-Dec-19 16:56 33.553107 -118.237343 121 5006ft 207kts
08-Dec-19 16:57 33.538070 -118.171941 79 5011ft 208kts
08-Dec-19 16:58 33.561326 -118.108593 59 5006ft 207kts
08-Dec-19 16:59 33.588449 -118.047665 59 5002ft 207kts
08-Dec-19 17:00 33.629946 -118.005213 8 5000ft 196kts
08-Dec-19 17:01 33.680467 -118.015300 338 5000ft 184kts
08-Dec-19 17:02 33.729957 -118.026252 22 5020ft 194kts
08-Dec-19 17:03 33.775115 -117.988447 32 4999ft 197kts
08-Dec-19 17:04 33.818407 -117.947791 45 5000ft 199kts
08-Dec-19 17:05 33.848341 -117.891451 59 5000ft 201kts
08-Dec-19 17:06 33.873287 -117.830999 62 5001ft 201kts
08-Dec-19 17:07 33.897733 -117.769911 62 5000ft 201kts
08-Dec-19 17:09 33.922179 -117.708964 57 4802ft 200kts
08-Dec-19 17:10 33.966502 -117.674708 18 4283ft 188kts
08-Dec-19 17:11 33.980072 -117.706808 204 3796ft 172kts
08-Dec-19 17:12 33.931870 -117.703772 205 3504ft 170kts
08-Dec-19 17:13 33.897039 -117.740639 213 3499ft 169kts
08-Dec-19 17:14 33.851418 -117.758378 200 3509ft 172kts
08-Dec-19 17:15 33.810422 -117.783266 211 3546ft 162kts
08-Dec-19 17:16 33.772123 -117.807660 211 3175ft 153kts
08-Dec-19 17:17 33.733790 -117.831997 210 1735ft 169kts
08-Dec-19 17:18 33.695484 -117.856267 208 377ft 133kts
08-Dec-19 17:19 33.665325 -117.876799 231 64ft 70kts
08-Dec-19 17:20 33.679771 -117.866277 208 64ft 52kts
08-Dec-19 17:21 33.672169 -117.871873 251 64ft 0kts
08-Dec-19 17:22 33.672169 -117.871873 251 64ft 0kts
08-Dec-19 17:23 33.671628 -117.872877 192 64ft 12kts

Navigation Log

Ident Type
Flight plan parsing failed, navigation log unavailable